Kikinda, Srbija

10:43 AM CEST on april 18, 2015 (GMT +0200)
Giarmata | | Change Station
CLOSE
Current Station
Airport
Location: Timisoara,
Višina: 348 ft
Nearby Weather Stations

Viš 348 ft 45.81 °N, 21.33 °E | Updated 13 minutes ago

Partly Cloudy
Delno oblacno
52 °F
Feels Like 52 °F
N
14
Veter Spremenljivo Veter od Sever

Danes
High -- | Low -- °F
--% Chance of Precip.
Yesterday
High -- | Low -- °F
Precip. -- v
5:47 AM 7:28 PM
Pojemajoči krajec, 0% visible
Zračni tlak 29.89 v
Vidljivost 6.2 milje
Oblaki Few 3600 ft
Rosišče 43 °F
Vlažnost 71%
Padavine 0.00 v
Snow Depth Not available.
UV 6 out of 12
Pollen Not available.
Air Quality Not available.
Flu Activity Not available.
METAR LRTR 180830Z 35012KT 310V010 9999 FEW036 11/06 Q1012 RMK R11/190095

More Conditions Fewer Conditions

Zračni tlak 29.89 v
Vidljivost 6.2 milje
Oblaki Few 3600 ft
Rosišče 43 °F
Vlažnost 71%
Padavine 0.00 v
Snow Depth Not available.
UV 6 out of 12
Pollen Not available.
Air Quality Not available.
Flu Activity Not available.
METAR LRTR 180830Z 35012KT 310V010 9999 FEW036 11/06 Q1012 RMK R11/190095

More Conditions Fewer Conditions

10-Day Weather Forecast

Almanac

Astronomija

Apr. 18, 2015 Rise Set
Actual Time
Civil Twilight
Nautical Twilight
Astronomical Twilight
Moon
Length Of Visible Light
Dolžina dneva
Tomorrow will be .
, % of the Moon is Illuminated

Današnji ekstremi

Country Highs Country Lows

Community

WunderPhotos

Upload Photos

1,814,345 photos uploaded!

WunderBlogs® & News

Nearby

Air Quality

  Air Quality AQ Index Pollutant
Not available.

Snow Depth

Station Depth Višina

Earthquake Activity

City Distance Mag. Time & Date
Minimum magnitude displayed is 2.5.

Coastal Water Temperatures

Mesto Temperatura

Stations

Nearby Weather Stations

Station Location Temp Občutek zaradi vetra Rosišče Vlažnost Veter Precip. Viš Obnovljeno Type